createdAt,value
2019-04-25T00:00:42.211Z,97799.66
2019-04-25T00:03:10.326Z,97799.39
2019-04-25T00:05:37.328Z,97795.16
2019-04-25T00:08:04.690Z,97797.03
2019-04-25T00:10:31.884Z,97809.08
2019-04-25T00:12:59.001Z,97811.25
2019-04-25T00:15:26.084Z,97805.42
2019-04-25T00:17:53.080Z,97799.03
2019-04-25T00:20:21.376Z,97796.89
2019-04-25T00:23:02.064Z,97797.98
2019-04-25T00:25:52.793Z,97799.63
2019-04-25T00:28:19.800Z,97795.08
2019-04-25T00:30:46.795Z,97795.41
2019-04-25T00:33:13.774Z,97789.81
2019-04-25T00:35:43.237Z,97787.14
2019-04-25T00:38:09.644Z,97791.69
2019-04-25T00:40:36.627Z,97790.68
2019-04-25T00:43:03.608Z,97793.09
2019-04-25T00:45:31.721Z,97796.56
2019-04-25T00:47:58.906Z,97788.09
2019-04-25T00:50:26.565Z,97795.38
2019-04-25T00:52:53.710Z,97799.63
2019-04-25T00:55:28.626Z,97791.60
2019-04-25T00:57:55.054Z,97797.22
2019-04-25T01:00:41.599Z,97794.57
2019-04-25T01:03:13.743Z,97798.16
2019-04-25T01:05:42.390Z,97803.52
2019-04-25T01:08:09.861Z,97797.13
2019-04-25T01:10:38.217Z,97800.09
2019-04-25T01:13:06.240Z,97805.17
2019-04-25T01:15:33.569Z,97806.03
2019-04-25T01:18:01.298Z,97811.38
2019-04-25T01:20:30.751Z,97820.47
2019-04-25T01:23:00.859Z,97820.47
2019-04-25T01:25:40.306Z,97819.94
2019-04-25T01:28:00.389Z,97816.45
2019-04-25T01:30:29.671Z,97806.63
2019-04-25T01:32:58.901Z,97811.73
2019-04-25T01:36:04.943Z,97821.68
2019-04-25T01:38:43.294Z,97820.05
2019-04-25T01:41:23.860Z,97820.08
2019-04-25T01:44:00.323Z,97813.69
2019-04-25T01:46:29.003Z,97812.03
2019-04-25T01:48:58.712Z,97809.67
2019-04-25T01:51:27.232Z,97817.16
2019-04-25T01:53:55.760Z,97820.94
2019-04-25T01:56:24.753Z,97843.09
2019-04-25T01:58:55.042Z,97835.13
2019-04-25T02:01:25.792Z,97820.19
2019-04-25T02:03:55.469Z,97823.69
2019-04-25T02:06:24.783Z,97826.12
2019-04-25T02:08:55.247Z,97837.34
2019-04-25T02:11:31.476Z,97839.25
2019-04-25T02:14:00.156Z,97846.22
2019-04-25T02:16:27.389Z,97848.92
2019-04-25T02:18:56.131Z,97845.25
2019-04-25T02:21:23.662Z,97852.16
2019-04-25T02:23:50.664Z,97854.56
2019-04-25T02:26:18.643Z,97861.30
2019-04-25T02:28:45.829Z,97863.43
2019-04-25T02:31:17.577Z,97855.47
2019-04-25T02:33:44.102Z,97860.52
2019-04-25T02:36:10.869Z,97865.30
2019-04-25T02:38:38.102Z,97860.81
2019-04-25T02:41:08.295Z,97864.84
2019-04-25T02:43:35.375Z,97863.51
2019-04-25T02:46:37.172Z,97858.91
2019-04-25T02:49:29.261Z,97858.72
2019-04-25T02:52:08.471Z,97861.95
2019-04-25T02:54:36.037Z,97868.06
2019-04-25T02:57:06.561Z,97863.02
2019-04-25T02:59:34.569Z,97857.67
2019-04-25T03:02:04.845Z,97846.50
2019-04-25T03:04:33.918Z,97857.99
2019-04-25T03:07:02.684Z,97858.77
2019-04-25T03:09:30.166Z,97862.53
2019-04-25T03:11:58.886Z,97860.45
2019-04-25T03:14:26.847Z,97866.89
2019-04-25T03:16:54.450Z,97870.60
2019-04-25T03:19:41.239Z,97873.00
2019-04-25T03:22:11.829Z,97877.02
2019-04-25T03:24:39.428Z,97880.25
2019-04-25T03:27:07.333Z,97872.23
2019-04-25T03:29:34.499Z,97875.19
2019-04-25T03:32:02.858Z,97876.53
2019-04-25T03:34:31.163Z,97878.40
2019-04-25T03:36:58.184Z,97884.33
2019-04-25T03:39:27.067Z,97878.69
2019-04-25T03:41:54.292Z,97883.23
2019-04-25T03:44:21.976Z,97891.00
2019-04-25T03:46:51.251Z,97892.09
2019-04-25T03:49:18.770Z,97889.14
2019-04-25T03:51:46.396Z,97885.13
2019-04-25T03:54:14.265Z,97888.91
2019-04-25T03:56:51.932Z,97857.74
2019-04-25T03:59:11.410Z,97886.05
2019-04-25T04:01:38.506Z,97876.14
2019-04-25T04:04:06.734Z,97881.23
2019-04-25T04:06:34.227Z,97873.46
2019-04-25T04:09:01.239Z,97858.28
2019-04-25T04:11:28.239Z,97859.11
2019-04-25T04:13:55.619Z,97839.06
2019-04-25T04:16:26.537Z,97830.30
2019-04-25T04:18:55.598Z,97811.89
2019-04-25T04:21:45.443Z,97792.20
2019-04-25T04:24:20.397Z,97789.23
2019-04-25T04:27:08.911Z,97804.75
2019-04-25T04:29:35.668Z,97805.56
2019-04-25T04:32:03.096Z,97823.97
2019-04-25T04:34:30.954Z,97838.90
2019-04-25T04:36:57.955Z,97855.20
2019-04-25T04:39:25.439Z,97862.12
2019-04-25T04:41:53.560Z,97871.23
2019-04-25T04:44:24.006Z,97877.61
2019-04-25T04:46:53.754Z,97872.80
2019-04-25T04:49:21.088Z,97871.98
2019-04-25T04:51:48.123Z,97868.51
2019-04-25T04:54:15.516Z,97871.38
2019-04-25T04:56:43.848Z,97872.47
2019-04-25T04:59:11.001Z,97871.18
2019-04-25T05:01:56.025Z,97867.22
2019-04-25T05:04:27.781Z,97860.78
2019-04-25T05:07:21.609Z,97854.10
2019-04-25T05:09:49.261Z,97854.34
2019-04-25T05:12:17.439Z,97849.00
2019-04-25T05:14:45.787Z,97852.19
2019-04-25T05:17:14.965Z,97841.69
2019-04-25T05:19:43.434Z,97841.40
2019-04-25T05:22:13.006Z,97850.00
2019-04-25T05:24:40.323Z,97851.84
2019-04-25T05:27:07.332Z,97850.75
2019-04-25T05:29:34.328Z,97850.46
2019-04-25T05:32:01.731Z,97853.94
2019-04-25T05:34:28.776Z,97847.77
2019-04-25T05:36:56.378Z,97854.98
2019-04-25T05:39:24.088Z,97848.25
2019-04-25T05:42:10.926Z,97856.51
2019-04-25T05:44:37.999Z,97854.88
2019-04-25T05:47:05.025Z,97857.26
2019-04-25T05:49:32.215Z,97852.43
2019-04-25T05:52:00.408Z,97852.67
2019-04-25T05:54:27.440Z,97849.66
2019-04-25T05:56:54.757Z,97845.66
2019-04-25T05:59:21.968Z,97846.70
2019-04-25T06:01:49.571Z,97850.66
2019-04-25T06:04:17.807Z,97856.75
2019-04-25T06:06:46.020Z,97852.16
2019-04-25T06:09:35.975Z,97851.30
2019-04-25T06:12:23.710Z,97857.96
2019-04-25T06:14:52.954Z,97851.75
2019-04-25T06:17:29.013Z,97847.91
2019-04-25T06:19:56.347Z,97837.22
2019-04-25T06:22:33.209Z,97836.27
2019-04-25T06:25:12.441Z,97833.81
2019-04-25T06:27:40.236Z,97840.95
2019-04-25T06:30:22.535Z,97837.06
2019-04-25T06:32:50.927Z,97835.14
2019-04-25T06:35:18.480Z,97834.81
2019-04-25T06:37:45.487Z,97824.83
2019-04-25T06:40:13.708Z,97834.11
2019-04-25T06:42:41.342Z,97824.95
2019-04-25T06:45:49.997Z,97829.37
2019-04-25T06:48:43.373Z,97833.63
2019-04-25T06:51:13.456Z,97828.73
2019-04-25T06:53:41.483Z,97829.94
2019-04-25T06:56:08.503Z,97825.09
2019-04-25T06:58:36.042Z,97824.27
2019-04-25T07:01:03.439Z,97818.55
2019-04-25T07:03:31.516Z,97810.22
2019-04-25T07:05:58.877Z,97810.66
2019-04-25T07:08:27.777Z,97813.57
2019-04-25T07:10:55.425Z,97808.95
2019-04-25T07:13:24.656Z,97804.81
2019-04-25T07:15:51.503Z,97807.13
2019-04-25T07:18:19.056Z,97809.77
2019-04-25T07:20:46.178Z,97806.19
2019-04-25T07:23:13.855Z,97802.91
2019-04-25T07:25:46.433Z,97802.05
2019-04-25T07:28:36.855Z,97798.16
2019-04-25T07:31:24.250Z,97797.55
2019-04-25T07:33:59.605Z,97797.42
2019-04-25T07:36:28.181Z,97786.97
2019-04-25T07:39:07.535Z,97790.65
2019-04-25T07:41:25.919Z,97780.90
2019-04-25T07:43:53.612Z,97779.19
2019-04-25T07:46:20.653Z,97776.20
2019-04-25T07:48:47.988Z,97767.02
2019-04-25T07:51:16.633Z,97772.84
2019-04-25T07:53:43.810Z,97773.58
2019-04-25T07:56:12.269Z,97766.53
2019-04-25T07:58:49.358Z,97764.81
2019-04-25T08:01:09.888Z,97769.80
2019-04-25T08:03:37.451Z,97762.49
2019-04-25T08:06:05.235Z,97756.75
2019-04-25T08:08:33.950Z,97749.55
2019-04-25T08:11:04.274Z,97758.70
2019-04-25T08:13:46.939Z,97748.22
2019-04-25T08:16:15.758Z,97761.00
2019-04-25T08:18:43.371Z,97748.33
2019-04-25T08:21:11.039Z,97756.25
2019-04-25T08:23:39.024Z,97755.56
2019-04-25T08:26:06.362Z,97760.39
2019-04-25T08:28:34.491Z,97755.75
2019-04-25T08:31:03.572Z,97753.15
2019-04-25T08:33:30.683Z,97753.64
2019-04-25T08:36:08.218Z,97745.25
2019-04-25T08:38:27.571Z,97743.29
2019-04-25T08:40:55.788Z,97735.73
2019-04-25T08:43:24.343Z,97739.19
2019-04-25T08:45:51.466Z,97730.83
2019-04-25T08:48:18.524Z,97725.16
2019-04-25T08:50:57.714Z,97723.28
2019-04-25T08:53:29.161Z,97728.64
2019-04-25T08:56:07.266Z,97733.39
2019-04-25T08:59:05.498Z,97735.68
2019-04-25T09:01:46.960Z,97724.46
2019-04-25T09:04:37.999Z,97728.75
2019-04-25T09:07:05.477Z,97730.86
2019-04-25T09:09:35.369Z,97724.72
2019-04-25T09:12:04.121Z,97716.67
2019-04-25T09:14:31.375Z,97709.66
2019-04-25T09:16:58.722Z,97705.07
2019-04-25T09:19:25.744Z,97710.69
2019-04-25T09:21:53.342Z,97708.02
2019-04-25T09:24:20.519Z,97704.94
2019-04-25T09:26:47.637Z,97702.48
2019-04-25T09:29:19.397Z,97712.10
2019-04-25T09:31:45.124Z,97695.39
2019-04-25T09:34:14.047Z,97709.05
2019-04-25T09:36:43.575Z,97697.75
2019-04-25T09:39:23.719Z,97696.36
2019-04-25T09:41:51.100Z,97691.45
2019-04-25T09:44:24.223Z,97694.31
2019-04-25T09:46:51.433Z,97685.16
2019-04-25T09:49:28.747Z,97679.48
2019-04-25T09:52:17.407Z,97682.64
2019-04-25T09:54:56.183Z,97677.73
2019-04-25T09:57:34.312Z,97677.73
2019-04-25T10:00:01.334Z,97665.89
2019-04-25T10:02:28.344Z,97668.52
2019-04-25T10:04:55.349Z,97668.98
2019-04-25T10:07:22.483Z,97667.81
2019-04-25T10:09:50.167Z,97668.27
2019-04-25T10:12:17.457Z,97666.55
2019-04-25T10:15:04.692Z,97662.22
2019-04-25T10:17:31.726Z,97656.79
2019-04-25T10:19:58.761Z,97660.81
2019-04-25T10:22:25.806Z,97656.70
2019-04-25T10:25:00.221Z,97648.33
2019-04-25T10:27:22.117Z,97648.82
2019-04-25T10:29:53.707Z,97646.36
2019-04-25T10:32:20.303Z,97654.64
2019-04-25T10:34:47.365Z,97649.98
2019-04-25T10:37:14.712Z,97653.16
2019-04-25T10:39:43.499Z,97630.56
2019-04-25T10:42:10.767Z,97631.50
2019-04-25T10:44:38.091Z,97631.75
2019-04-25T10:47:05.186Z,97619.36
2019-04-25T10:49:34.376Z,97617.13
2019-04-25T10:52:01.945Z,97613.35
2019-04-25T10:54:29.288Z,97605.43
2019-04-25T10:56:56.562Z,97604.57
2019-04-25T10:59:23.902Z,97589.00
2019-04-25T11:01:51.088Z,97590.25
2019-04-25T11:04:24.374Z,97544.29
2019-04-25T11:06:51.751Z,97584.50
2019-04-25T11:09:25.899Z,97571.52
2019-04-25T11:11:53.618Z,97572.86
2019-04-25T11:14:20.744Z,97566.38
2019-04-25T11:16:48.446Z,97570.88
2019-04-25T11:19:15.487Z,97565.09
2019-04-25T11:21:45.158Z,97557.61
2019-04-25T11:24:14.216Z,97567.14
2019-04-25T11:26:41.578Z,97560.91
2019-04-25T11:29:08.831Z,97561.67
2019-04-25T11:31:40.993Z,97557.33
2019-04-25T11:34:08.750Z,97560.49
2019-04-25T11:36:35.768Z,97557.80
2019-04-25T11:39:33.845Z,97555.02
2019-04-25T11:42:05.667Z,97549.33
2019-04-25T11:44:33.308Z,97549.11
2019-04-25T11:47:03.822Z,97546.64
2019-04-25T11:49:31.317Z,97540.41
2019-04-25T11:51:58.338Z,97552.94
2019-04-25T11:54:25.380Z,97546.19
2019-04-25T11:56:54.722Z,97531.95
2019-04-25T11:59:23.519Z,97517.41
2019-04-25T12:01:52.253Z,97521.59
2019-04-25T12:04:19.371Z,97537.61
2019-04-25T12:06:47.603Z,97532.70
2019-04-25T12:09:14.660Z,97514.59
2019-04-25T12:11:43.530Z,97528.48
2019-04-25T12:14:10.636Z,97525.47
2019-04-25T12:16:38.839Z,97519.77
2019-04-25T12:19:06.551Z,97518.42
2019-04-25T12:21:34.032Z,97509.50
2019-04-25T12:24:05.442Z,97504.34
2019-04-25T12:26:31.122Z,97508.05
2019-04-25T12:28:58.834Z,97494.29
2019-04-25T12:31:25.867Z,97499.98
2019-04-25T12:33:55.204Z,97496.98
2019-04-25T12:36:23.968Z,97508.20
2019-04-25T12:38:51.170Z,97497.45
2019-04-25T12:41:18.255Z,97508.87
2019-04-25T12:43:54.583Z,97509.34
2019-04-25T12:46:35.110Z,97496.81
2019-04-25T12:49:02.448Z,97498.86
2019-04-25T12:51:29.489Z,97491.48
2019-04-25T12:53:56.540Z,97494.17
2019-04-25T12:56:24.755Z,97488.80
2019-04-25T12:58:53.830Z,97480.41
2019-04-25T13:01:23.107Z,97483.36
2019-04-25T13:03:51.339Z,97476.41
2019-04-25T13:06:18.370Z,97480.23
2019-04-25T13:08:45.455Z,97488.73
2019-04-25T13:11:13.934Z,97473.18
2019-04-25T13:13:41.288Z,97474.96
2019-04-25T13:16:08.634Z,97474.12
2019-04-25T13:18:36.101Z,97473.77
2019-04-25T13:21:03.607Z,97473.19
2019-04-25T13:23:32.034Z,97472.97
2019-04-25T13:25:59.507Z,97482.16
2019-04-25T13:29:01.355Z,97475.66
2019-04-25T13:31:46.735Z,97475.33
2019-04-25T13:34:35.217Z,97475.33
2019-04-25T13:36:51.414Z,97478.16
2019-04-25T13:39:19.276Z,97472.63
2019-04-25T13:41:46.817Z,97466.81
2019-04-25T13:44:14.278Z,97465.94
2019-04-25T13:46:43.255Z,97460.67
2019-04-25T13:49:11.126Z,97455.43
2019-04-25T13:51:38.549Z,97454.22
2019-04-25T13:54:06.482Z,97459.74
2019-04-25T13:56:34.869Z,97453.78
2019-04-25T13:59:04.228Z,97450.89
2019-04-25T14:01:31.823Z,97396.20
2019-04-25T14:03:59.062Z,97444.72
2019-04-25T14:06:26.264Z,97447.87
2019-04-25T14:08:53.630Z,97441.25
2019-04-25T14:11:21.497Z,97432.52
2019-04-25T14:13:49.275Z,97417.84
2019-04-25T14:16:25.336Z,97420.42
2019-04-25T14:19:15.627Z,97431.09
2019-04-25T14:21:43.434Z,97421.42
2019-04-25T14:24:19.923Z,97406.52
2019-04-25T14:26:39.524Z,97408.87
2019-04-25T14:29:06.782Z,97406.52
2019-04-25T14:31:45.496Z,97404.38
2019-04-25T14:34:04.991Z,97401.33
2019-04-25T14:36:33.234Z,97394.27
2019-04-25T14:39:00.717Z,97394.73
2019-04-25T14:41:28.143Z,97397.08
2019-04-25T14:43:55.663Z,97398.75
2019-04-25T14:46:22.765Z,97395.84
2019-04-25T14:48:50.340Z,97397.05
2019-04-25T14:51:17.521Z,97394.15
2019-04-25T14:53:45.420Z,97389.77
2019-04-25T14:56:29.077Z,97394.59
2019-04-25T14:58:56.467Z,97394.02
2019-04-25T15:01:24.013Z,97394.48
2019-04-25T15:03:52.058Z,97383.83
2019-04-25T15:06:20.022Z,97382.38
2019-04-25T15:08:47.970Z,97379.02
2019-04-25T15:11:15.548Z,97384.41
2019-04-25T15:13:42.855Z,97382.14
2019-04-25T15:16:09.866Z,97378.34
2019-04-25T15:18:46.377Z,97383.64
2019-04-25T15:21:06.396Z,97383.31
2019-04-25T15:23:34.424Z,97379.16
2019-04-25T15:26:01.744Z,97386.00
2019-04-25T15:28:29.711Z,97381.71
2019-04-25T15:30:57.023Z,97373.88
2019-04-25T15:33:25.188Z,97380.72
2019-04-25T15:36:03.527Z,97378.45
2019-04-25T15:38:37.326Z,97380.80
2019-04-25T15:41:13.857Z,97377.67
2019-04-25T15:44:01.140Z,97379.02
2019-04-25T15:46:32.292Z,97382.81
2019-04-25T15:49:00.799Z,97382.81
2019-04-25T15:51:28.270Z,97366.89
2019-04-25T15:53:55.654Z,97373.41
2019-04-25T15:56:23.523Z,97367.36
2019-04-25T15:58:51.184Z,97380.80
2019-04-25T16:01:18.476Z,97372.30
2019-04-25T16:03:45.537Z,97374.85
2019-04-25T16:06:13.205Z,97366.23
2019-04-25T16:08:40.271Z,97363.75
2019-04-25T16:11:07.321Z,97361.98
2019-04-25T16:13:34.485Z,97356.93
2019-04-25T16:16:01.604Z,97364.67
2019-04-25T16:18:30.461Z,97365.77
2019-04-25T16:20:57.773Z,97369.14
2019-04-25T16:23:24.799Z,97374.85
2019-04-25T16:25:52.382Z,97373.84
2019-04-25T16:28:19.642Z,97377.44
2019-04-25T16:30:47.044Z,97376.31
2019-04-25T16:33:14.646Z,97376.31
2019-04-25T16:35:42.769Z,97367.69
2019-04-25T16:38:10.888Z,97367.79
2019-04-25T16:40:37.927Z,97367.79
2019-04-25T16:43:08.349Z,97371.39
2019-04-25T16:45:38.058Z,97366.02
2019-04-25T16:48:05.095Z,97369.59
2019-04-25T16:50:34.178Z,97373.84
2019-04-25T16:53:01.977Z,97369.59
2019-04-25T16:55:30.848Z,97361.71
2019-04-25T16:57:58.975Z,97366.44
2019-04-25T17:00:38.574Z,97369.34
2019-04-25T17:03:05.601Z,97373.03
2019-04-25T17:05:34.600Z,97378.08
2019-04-25T17:08:01.925Z,97378.52
2019-04-25T17:10:30.301Z,97375.15
2019-04-25T17:12:58.840Z,97374.48
2019-04-25T17:15:50.039Z,97382.09
2019-04-25T17:18:20.504Z,97381.43
2019-04-25T17:20:57.344Z,97380.75
2019-04-25T17:23:24.780Z,97384.31
2019-04-25T17:25:52.147Z,97387.42
2019-04-25T17:28:20.629Z,97385.11
2019-04-25T17:30:51.019Z,97386.45
2019-04-25T17:33:36.527Z,97392.05
2019-04-25T17:36:23.554Z,97392.70
2019-04-25T17:38:54.120Z,97399.61
2019-04-25T17:41:21.440Z,97403.42
2019-04-25T17:43:49.066Z,97404.41
2019-04-25T17:46:18.274Z,97409.70
2019-04-25T17:48:45.562Z,97422.24
2019-04-25T17:51:12.623Z,97429.18
2019-04-25T17:53:39.982Z,97447.56
2019-04-25T17:56:07.325Z,97460.63
2019-04-25T17:58:35.266Z,97470.36
2019-04-25T18:01:03.174Z,97466.16
2019-04-25T18:03:30.798Z,97470.58
2019-04-25T18:05:58.258Z,97473.33
2019-04-25T18:08:25.809Z,97479.41
2019-04-25T18:10:53.083Z,97488.06
2019-04-25T18:13:21.259Z,97496.44
2019-04-25T18:16:17.532Z,97497.08
2019-04-25T18:18:59.093Z,97510.95
2019-04-25T18:21:26.502Z,97509.88
2019-04-25T18:24:12.290Z,97519.27
2019-04-25T18:26:59.312Z,97527.28
2019-04-25T18:29:26.597Z,97539.22
2019-04-25T18:31:54.454Z,97557.00
2019-04-25T18:34:28.868Z,97562.89
2019-04-25T18:37:10.495Z,97572.41
2019-04-25T18:39:46.221Z,97588.93
2019-04-25T18:42:31.991Z,97587.92
2019-04-25T18:44:58.988Z,97595.77
2019-04-25T18:47:26.265Z,97609.94
2019-04-25T18:49:53.283Z,97618.88
2019-04-25T18:52:49.113Z,97626.21
2019-04-25T18:55:23.119Z,97628.50
2019-04-25T18:58:02.699Z,97634.80
2019-04-25T19:00:39.200Z,97632.52
2019-04-25T19:03:30.707Z,97652.16
2019-04-25T19:06:00.499Z,97660.61
2019-04-25T19:08:28.170Z,97662.11
2019-04-25T19:10:55.531Z,97669.05
2019-04-25T19:13:22.698Z,97668.87
2019-04-25T19:15:51.506Z,97674.09
2019-04-25T19:18:19.609Z,97681.81
2019-04-25T19:20:48.062Z,97672.47
2019-04-25T19:23:15.736Z,97687.92
2019-04-25T19:25:43.692Z,97698.19
2019-04-25T19:28:10.989Z,97709.46
2019-04-25T19:30:38.652Z,97717.02
2019-04-25T19:33:07.483Z,97711.19
2019-04-25T19:35:34.777Z,97726.02
2019-04-25T19:38:02.148Z,97718.79
2019-04-25T19:40:49.060Z,97722.81
2019-04-25T19:43:35.194Z,97737.14
2019-04-25T19:46:02.376Z,97748.55
2019-04-25T19:48:30.351Z,97752.95
2019-04-25T19:50:57.384Z,97749.55
2019-04-25T19:53:24.415Z,97759.78
2019-04-25T19:55:52.877Z,97755.83
2019-04-25T19:58:20.631Z,97761.27
2019-04-25T20:00:49.072Z,97781.11
2019-04-25T20:03:54.965Z,97782.83
2019-04-25T20:06:45.746Z,97802.16
2019-04-25T20:09:25.979Z,97810.23
2019-04-25T20:11:53.629Z,97807.09
2019-04-25T20:14:20.998Z,97807.70
2019-04-25T20:16:49.625Z,97816.03
2019-04-25T20:19:16.848Z,97812.79
2019-04-25T20:21:44.594Z,97815.00
2019-04-25T20:24:13.030Z,97832.95
2019-04-25T20:26:40.138Z,97827.91
2019-04-25T20:29:08.208Z,97841.00
2019-04-25T20:31:35.878Z,97850.07
2019-04-25T20:34:06.202Z,97852.98
2019-04-25T20:36:32.419Z,97851.30
2019-04-25T20:39:01.905Z,97850.70
2019-04-25T20:41:28.932Z,97849.36
2019-04-25T20:43:57.018Z,97851.77
2019-04-25T20:46:24.111Z,97867.17
2019-04-25T20:48:52.290Z,97882.65
2019-04-25T20:51:20.513Z,97881.00
2019-04-25T20:53:48.819Z,97884.19
2019-04-25T20:56:17.101Z,97882.23
2019-04-25T20:58:44.241Z,97894.53
2019-04-25T21:01:11.529Z,97903.92
2019-04-25T21:03:39.217Z,97889.41
2019-04-25T21:06:13.441Z,97891.55
2019-04-25T21:08:40.513Z,97889.11
2019-04-25T21:11:07.697Z,97889.67
2019-04-25T21:13:43.377Z,97894.73
2019-04-25T21:16:46.082Z,97902.20
2019-04-25T21:19:16.196Z,97901.36
2019-04-25T21:21:43.232Z,97912.82
2019-04-25T21:24:10.503Z,97929.14
2019-04-25T21:26:37.629Z,97933.66
2019-04-25T21:29:04.949Z,97940.60
2019-04-25T21:31:32.977Z,97937.92
2019-04-25T21:34:00.015Z,97938.45
2019-04-25T21:36:27.984Z,97935.77
2019-04-25T21:38:55.410Z,97936.34
2019-04-25T21:41:57.899Z,97935.98
2019-04-25T21:44:25.578Z,97934.64
2019-04-25T21:46:53.672Z,97945.97
2019-04-25T21:49:22.043Z,97944.86
2019-04-25T21:51:49.601Z,97933.91
2019-04-25T21:54:16.902Z,97926.70
2019-04-25T21:56:44.325Z,97935.35
2019-04-25T21:59:11.807Z,97942.12
2019-04-25T22:01:39.933Z,97930.13
2019-04-25T22:04:07.371Z,97922.69
2019-04-25T22:06:35.035Z,97930.23
2019-04-25T22:09:05.241Z,97937.80
2019-04-25T22:11:32.484Z,97932.77
2019-04-25T22:13:59.913Z,97943.25
2019-04-25T22:16:27.583Z,97951.90
2019-04-25T22:18:56.462Z,97948.48
2019-04-25T22:21:24.075Z,97942.08
2019-04-25T22:24:03.087Z,97942.95
2019-04-25T22:26:20.205Z,97944.59
2019-04-25T22:28:48.258Z,97938.73
2019-04-25T22:31:20.129Z,97944.63
2019-04-25T22:34:03.752Z,97951.08
2019-04-25T22:36:31.902Z,97944.21
2019-04-25T22:39:09.444Z,97951.45
2019-04-25T22:41:37.181Z,97961.36
2019-04-25T22:44:04.981Z,97952.84
2019-04-25T22:46:33.173Z,97954.52
2019-04-25T22:49:01.355Z,97952.94
2019-04-25T22:51:29.074Z,97954.34
2019-04-25T22:53:56.479Z,97953.87
2019-04-25T22:56:23.494Z,97948.27
2019-04-25T22:58:51.162Z,97931.10
2019-04-25T23:01:41.536Z,97935.95
2019-04-25T23:04:15.020Z,97939.73
2019-04-25T23:06:43.157Z,97946.19
2019-04-25T23:09:10.423Z,97940.90
2019-04-25T23:11:38.069Z,97944.11
2019-04-25T23:14:05.837Z,97956.46
2019-04-25T23:16:34.924Z,97946.58
2019-04-25T23:19:02.824Z,97941.52
2019-04-25T23:21:30.545Z,97955.19
2019-04-25T23:23:57.578Z,97945.30
2019-04-25T23:26:44.271Z,97932.78
2019-04-25T23:29:12.449Z,97918.89
2019-04-25T23:31:39.900Z,97922.96
2019-04-25T23:34:08.766Z,97926.17
2019-04-25T23:36:37.000Z,97920.31
2019-04-25T23:39:08.297Z,97916.89
2019-04-25T23:41:37.617Z,97913.74
2019-04-25T23:44:05.766Z,97916.18
2019-04-25T23:46:34.469Z,97924.45
2019-04-25T23:49:02.115Z,97932.95
2019-04-25T23:51:30.019Z,97933.02
2019-04-25T23:53:57.355Z,97923.70
2019-04-25T23:56:24.382Z,97926.15
2019-04-25T23:58:51.698Z,97915.97
